createdAt,value
2019-03-22T00:00:38.965Z,0.00
2019-03-22T00:01:38.964Z,0.00
2019-03-22T00:02:38.974Z,0.00
2019-03-22T00:03:38.986Z,0.00
2019-03-22T00:04:38.995Z,0.00
2019-03-22T00:05:39.017Z,0.00
2019-03-22T00:06:39.018Z,0.00
2019-03-22T00:07:39.029Z,0.00
2019-03-22T00:08:39.035Z,0.00
2019-03-22T00:09:39.044Z,0.00
2019-03-22T00:10:39.053Z,0.00
2019-03-22T00:11:39.067Z,0.00
2019-03-22T00:12:39.072Z,0.00
2019-03-22T00:13:39.089Z,0.00
2019-03-22T00:14:39.094Z,0.00
2019-03-22T00:15:39.105Z,0.00
2019-03-22T00:16:39.114Z,0.00
2019-03-22T00:17:39.119Z,0.00
2019-03-22T00:18:39.129Z,0.00
2019-03-22T00:19:39.141Z,0.00
2019-03-22T00:20:39.148Z,0.00
2019-03-22T00:21:39.158Z,0.00
2019-03-22T00:22:39.170Z,0.00
2019-03-22T00:23:39.177Z,0.00
2019-03-22T00:24:39.187Z,0.00
2019-03-22T00:25:39.199Z,0.00
2019-03-22T00:26:39.205Z,0.00
2019-03-22T00:27:39.214Z,0.00
2019-03-22T00:28:39.234Z,0.00
2019-03-22T00:29:39.238Z,0.00
2019-03-22T00:30:39.245Z,0.00
2019-03-22T00:31:39.256Z,0.00
2019-03-22T00:32:39.266Z,0.00
2019-03-22T00:33:39.278Z,0.00
2019-03-22T00:34:39.289Z,0.00
2019-03-22T00:35:39.292Z,0.00
2019-03-22T00:36:39.305Z,0.00
2019-03-22T00:37:39.310Z,0.00
2019-03-22T00:38:39.325Z,0.00
2019-03-22T00:39:39.332Z,0.00
2019-03-22T00:40:39.343Z,0.00
2019-03-22T00:41:39.351Z,0.00
2019-03-22T00:42:39.364Z,0.00
2019-03-22T00:43:39.372Z,0.00
2019-03-22T00:44:39.384Z,0.00
2019-03-22T00:45:39.394Z,0.00
2019-03-22T00:46:39.401Z,0.00
2019-03-22T00:47:39.457Z,0.00
2019-03-22T00:48:39.420Z,0.00
2019-03-22T00:49:39.426Z,0.00
2019-03-22T00:50:39.437Z,0.00
2019-03-22T00:51:39.450Z,0.00
2019-03-22T00:52:39.456Z,0.00
2019-03-22T00:53:39.469Z,0.00
2019-03-22T00:54:39.472Z,0.00
2019-03-22T00:55:39.485Z,0.00
2019-03-22T00:56:39.495Z,0.00
2019-03-22T00:57:39.506Z,0.00
2019-03-22T00:58:39.511Z,0.00
2019-03-22T00:59:39.518Z,0.00
2019-03-22T01:00:39.533Z,0.00
2019-03-22T01:01:39.542Z,0.00
2019-03-22T01:02:39.551Z,0.00
2019-03-22T01:03:39.564Z,0.00
2019-03-22T01:04:39.569Z,0.00
2019-03-22T01:05:39.580Z,0.00
2019-03-22T01:06:39.584Z,0.00
2019-03-22T01:07:39.598Z,0.00
2019-03-22T01:08:39.604Z,0.00
2019-03-22T01:09:39.610Z,0.00
2019-03-22T01:10:39.625Z,0.00
2019-03-22T01:11:39.636Z,0.00
2019-03-22T01:12:39.642Z,0.00
2019-03-22T01:13:39.648Z,0.00
2019-03-22T01:14:39.659Z,0.00
2019-03-22T01:15:39.669Z,0.00
2019-03-22T01:16:39.681Z,0.00
2019-03-22T01:17:39.687Z,0.00
2019-03-22T01:18:39.696Z,0.00
2019-03-22T01:19:39.709Z,0.00
2019-03-22T01:20:39.715Z,0.00
2019-03-22T01:21:39.737Z,0.00
2019-03-22T01:22:39.736Z,0.00
2019-03-22T01:23:39.745Z,0.00
2019-03-22T01:24:39.755Z,0.00
2019-03-22T01:25:39.760Z,0.00
2019-03-22T01:26:39.771Z,0.00
2019-03-22T01:27:41.303Z,0.00
2019-03-22T01:28:39.791Z,0.00
2019-03-22T01:29:39.797Z,0.00
2019-03-22T01:30:39.809Z,0.00
2019-03-22T01:31:39.819Z,0.00
2019-03-22T01:32:39.829Z,0.00
2019-03-22T01:33:39.838Z,0.00
2019-03-22T01:34:39.854Z,0.00
2019-03-22T01:35:39.852Z,0.00
2019-03-22T01:36:39.861Z,0.00
2019-03-22T01:37:39.876Z,0.00
2019-03-22T01:38:39.878Z,0.00
2019-03-22T01:39:39.890Z,0.00
2019-03-22T01:40:39.898Z,0.00
2019-03-22T01:41:39.915Z,0.00
2019-03-22T01:42:39.920Z,0.00
2019-03-22T01:43:39.922Z,0.00
2019-03-22T01:44:39.937Z,0.00
2019-03-22T01:45:39.945Z,0.00
2019-03-22T01:46:39.949Z,0.00
2019-03-22T01:47:39.959Z,0.00
2019-03-22T01:48:39.971Z,0.00
2019-03-22T01:49:39.981Z,0.00
2019-03-22T01:50:39.986Z,0.00
2019-03-22T01:51:39.996Z,0.00
2019-03-22T01:52:40.004Z,0.00
2019-03-22T01:53:40.015Z,0.00
2019-03-22T01:54:40.041Z,0.00
2019-03-22T01:55:40.030Z,0.00
2019-03-22T01:56:40.045Z,0.00
2019-03-22T01:57:51.938Z,0.00
2019-03-22T01:58:40.062Z,0.00
2019-03-22T01:59:40.070Z,0.00
2019-03-22T02:00:40.076Z,0.00
2019-03-22T02:01:40.140Z,0.00
2019-03-22T02:02:40.093Z,0.00
2019-03-22T02:03:40.107Z,0.00
2019-03-22T02:04:40.114Z,0.00
2019-03-22T02:05:40.123Z,0.00
2019-03-22T02:06:40.130Z,0.00
2019-03-22T02:07:40.141Z,0.00
2019-03-22T02:08:40.150Z,0.00
2019-03-22T02:09:40.157Z,0.00
2019-03-22T02:10:40.166Z,0.00
2019-03-22T02:11:40.182Z,0.00
2019-03-22T02:12:40.188Z,0.00
2019-03-22T02:13:40.196Z,0.00
2019-03-22T02:14:40.203Z,0.00
2019-03-22T02:15:40.209Z,0.00
2019-03-22T02:16:40.223Z,0.00
2019-03-22T02:17:40.227Z,0.00
2019-03-22T02:18:40.238Z,0.00
2019-03-22T02:19:40.244Z,0.00
2019-03-22T02:20:40.253Z,0.00
2019-03-22T02:21:40.266Z,0.00
2019-03-22T02:22:40.278Z,0.00
2019-03-22T02:23:40.283Z,0.00
2019-03-22T02:24:40.292Z,0.00
2019-03-22T02:25:40.300Z,0.00
2019-03-22T02:26:40.312Z,0.00
2019-03-22T02:27:40.318Z,0.00
2019-03-22T02:28:40.324Z,0.00
2019-03-22T02:29:40.337Z,0.00
2019-03-22T02:30:40.342Z,0.00
2019-03-22T02:31:40.356Z,0.00
2019-03-22T02:32:40.384Z,0.00
2019-03-22T02:33:40.373Z,0.00
2019-03-22T02:34:40.385Z,0.00
2019-03-22T02:35:40.390Z,0.00
2019-03-22T02:36:40.405Z,0.00
2019-03-22T02:37:40.405Z,0.00
2019-03-22T02:38:40.421Z,0.00
2019-03-22T02:39:40.572Z,0.00
2019-03-22T02:40:40.435Z,0.00
2019-03-22T02:41:40.442Z,0.00
2019-03-22T02:42:40.449Z,0.00
2019-03-22T02:43:40.470Z,0.00
2019-03-22T02:44:40.467Z,0.00
2019-03-22T02:45:40.525Z,0.00
2019-03-22T02:46:40.485Z,0.00
2019-03-22T02:47:40.506Z,0.00
2019-03-22T02:48:40.505Z,0.00
2019-03-22T02:49:40.516Z,0.00
2019-03-22T02:50:40.538Z,0.00
2019-03-22T02:51:40.529Z,0.00
2019-03-22T02:52:40.539Z,0.00
2019-03-22T02:53:40.547Z,0.00
2019-03-22T02:54:40.560Z,0.00
2019-03-22T02:55:40.726Z,0.00
2019-03-22T02:56:40.574Z,0.00
2019-03-22T02:57:40.614Z,0.00
2019-03-22T02:58:40.599Z,0.00
2019-03-22T02:59:40.598Z,0.00
2019-03-22T03:00:40.621Z,0.00
2019-03-22T03:01:40.615Z,0.00
2019-03-22T03:02:40.630Z,0.00
2019-03-22T03:03:40.634Z,0.00
2019-03-22T03:04:40.645Z,0.00
2019-03-22T03:05:40.663Z,0.00
2019-03-22T03:06:40.673Z,0.00
2019-03-22T03:07:40.677Z,0.00
2019-03-22T03:08:40.683Z,0.00
2019-03-22T03:09:40.690Z,0.00
2019-03-22T03:10:40.697Z,0.00
2019-03-22T03:11:40.704Z,0.00
2019-03-22T03:12:40.714Z,0.00
2019-03-22T03:13:40.721Z,0.00
2019-03-22T03:14:40.738Z,0.00
2019-03-22T03:15:40.744Z,0.00
2019-03-22T03:16:40.753Z,0.00
2019-03-22T03:17:40.761Z,0.00
2019-03-22T03:18:40.766Z,0.00
2019-03-22T03:19:40.777Z,0.00
2019-03-22T03:20:40.795Z,0.00
2019-03-22T03:21:40.796Z,0.00
2019-03-22T03:22:40.804Z,0.00
2019-03-22T03:23:40.813Z,0.00
2019-03-22T03:24:40.827Z,0.00
2019-03-22T03:25:40.827Z,0.00
2019-03-22T03:26:40.837Z,0.00
2019-03-22T03:27:40.846Z,0.00
2019-03-22T03:28:40.861Z,0.00
2019-03-22T03:29:40.870Z,0.00
2019-03-22T03:30:40.894Z,0.00
2019-03-22T03:31:40.884Z,0.00
2019-03-22T03:32:40.891Z,0.00
2019-03-22T03:33:40.904Z,0.00
2019-03-22T03:34:40.913Z,0.00
2019-03-22T03:35:40.923Z,0.00
2019-03-22T03:36:40.943Z,0.00
2019-03-22T03:37:40.938Z,0.00
2019-03-22T03:38:40.965Z,0.00
2019-03-22T03:39:41.031Z,0.00
2019-03-22T03:40:40.962Z,0.00
2019-03-22T03:41:40.979Z,0.00
2019-03-22T03:42:40.984Z,0.00
2019-03-22T03:43:40.992Z,0.00
2019-03-22T03:44:41.000Z,0.00
2019-03-22T03:45:41.009Z,0.00
2019-03-22T03:46:41.022Z,0.00
2019-03-22T03:47:41.026Z,0.00
2019-03-22T03:48:41.032Z,0.00
2019-03-22T03:49:41.040Z,0.00
2019-03-22T03:50:41.112Z,0.00
2019-03-22T03:51:41.058Z,0.00
2019-03-22T03:52:41.073Z,0.00
2019-03-22T03:53:41.076Z,0.00
2019-03-22T03:54:41.090Z,0.00
2019-03-22T03:55:41.103Z,0.00
2019-03-22T03:56:41.101Z,0.00
2019-03-22T03:57:41.111Z,0.00
2019-03-22T03:58:52.089Z,0.00
2019-03-22T03:59:41.132Z,0.00
2019-03-22T04:00:41.139Z,0.00
2019-03-22T04:01:41.143Z,0.00
2019-03-22T04:02:41.157Z,0.00
2019-03-22T04:03:41.168Z,0.00
2019-03-22T04:04:41.173Z,0.00
2019-03-22T04:05:41.179Z,0.00
2019-03-22T04:06:41.193Z,0.00
2019-03-22T04:07:41.201Z,0.00
2019-03-22T04:08:41.213Z,0.00
2019-03-22T04:09:41.229Z,0.00
2019-03-22T04:10:41.225Z,0.00
2019-03-22T04:11:41.234Z,0.00
2019-03-22T04:12:41.243Z,0.00
2019-03-22T04:13:41.253Z,0.00
2019-03-22T04:14:41.258Z,0.00
2019-03-22T04:15:41.270Z,0.00
2019-03-22T04:16:41.276Z,0.00
2019-03-22T04:17:41.285Z,0.00
2019-03-22T04:18:41.294Z,0.00
2019-03-22T04:19:41.310Z,0.00
2019-03-22T04:20:41.315Z,0.00
2019-03-22T04:21:41.319Z,0.00
2019-03-22T04:22:41.334Z,0.00
2019-03-22T04:23:41.339Z,0.00
2019-03-22T04:24:41.348Z,0.00
2019-03-22T04:25:41.359Z,0.00
2019-03-22T04:26:41.365Z,0.00
2019-03-22T04:27:41.382Z,0.00
2019-03-22T04:28:41.472Z,0.00
2019-03-22T04:29:41.401Z,0.00
2019-03-22T04:30:41.408Z,0.00
2019-03-22T04:31:41.411Z,0.00
2019-03-22T04:32:41.426Z,0.00
2019-03-22T04:33:41.491Z,0.00
2019-03-22T04:34:41.438Z,0.00
2019-03-22T04:35:41.455Z,0.00
2019-03-22T04:36:41.454Z,0.00
2019-03-22T04:37:41.465Z,0.00
2019-03-22T04:38:41.481Z,0.00
2019-03-22T04:39:41.481Z,0.00
2019-03-22T04:40:41.493Z,0.00
2019-03-22T04:41:41.495Z,0.00
2019-03-22T04:42:41.504Z,0.00
2019-03-22T04:43:41.512Z,0.00
2019-03-22T04:44:41.522Z,0.00
2019-03-22T04:45:41.533Z,0.00
2019-03-22T04:46:41.550Z,0.00
2019-03-22T04:47:41.550Z,0.00
2019-03-22T04:48:41.555Z,0.00
2019-03-22T04:49:41.569Z,0.00
2019-03-22T04:50:41.573Z,0.00
2019-03-22T04:51:41.583Z,0.00
2019-03-22T04:52:41.589Z,0.00
2019-03-22T04:53:41.613Z,0.00
2019-03-22T04:54:41.610Z,0.00
2019-03-22T04:55:41.620Z,0.00
2019-03-22T04:56:41.628Z,0.00
2019-03-22T04:57:41.630Z,0.00
2019-03-22T04:58:41.637Z,0.00
2019-03-22T04:59:41.652Z,0.00
2019-03-22T05:00:41.656Z,0.00
2019-03-22T05:01:41.668Z,0.00
2019-03-22T05:02:41.677Z,0.00
2019-03-22T05:03:41.685Z,0.00
2019-03-22T05:04:41.694Z,0.00
2019-03-22T05:05:41.704Z,0.00
2019-03-22T05:06:41.744Z,0.00
2019-03-22T05:07:41.714Z,0.00
2019-03-22T05:08:41.727Z,0.00
2019-03-22T05:09:41.731Z,0.00
2019-03-22T05:10:41.741Z,0.00
2019-03-22T05:11:41.752Z,0.00
2019-03-22T05:12:41.756Z,0.00
2019-03-22T05:13:41.765Z,0.00
2019-03-22T05:14:41.776Z,0.00
2019-03-22T05:15:41.786Z,0.00
2019-03-22T05:16:41.795Z,0.00
2019-03-22T05:17:41.803Z,0.00
2019-03-22T05:18:43.893Z,0.00
2019-03-22T05:19:41.814Z,0.00
2019-03-22T05:20:41.829Z,4.00
2019-03-22T05:21:41.830Z,4.00
2019-03-22T05:22:41.842Z,4.00
2019-03-22T05:23:41.847Z,4.00
2019-03-22T05:24:41.861Z,4.00
2019-03-22T05:25:41.870Z,4.00
2019-03-22T05:26:41.879Z,4.00
2019-03-22T05:27:41.880Z,8.00
2019-03-22T05:28:41.890Z,8.00
2019-03-22T05:29:41.901Z,8.00
2019-03-22T05:30:41.913Z,8.00
2019-03-22T05:31:41.919Z,8.00
2019-03-22T05:32:41.929Z,12.00
2019-03-22T05:33:41.937Z,12.00
2019-03-22T05:34:41.942Z,8.00
2019-03-22T05:35:41.948Z,12.00
2019-03-22T05:36:41.956Z,12.00
2019-03-22T05:37:41.964Z,12.00
2019-03-22T05:38:41.977Z,12.00
2019-03-22T05:39:41.985Z,16.00
2019-03-22T05:40:41.997Z,16.00
2019-03-22T05:41:42.000Z,16.00
2019-03-22T05:42:42.013Z,16.00
2019-03-22T05:43:42.020Z,20.00
2019-03-22T05:44:42.027Z,20.00
2019-03-22T05:45:42.035Z,20.00
2019-03-22T05:46:42.039Z,20.00
2019-03-22T05:47:42.048Z,24.00
2019-03-22T05:48:42.059Z,24.00
2019-03-22T05:49:42.065Z,24.00
2019-03-22T05:50:42.075Z,28.00
2019-03-22T05:51:42.085Z,28.00
2019-03-22T05:52:42.096Z,28.00
2019-03-22T05:53:42.105Z,28.00
2019-03-22T05:54:42.110Z,32.00
2019-03-22T05:55:42.117Z,32.00
2019-03-22T05:56:42.128Z,32.00
2019-03-22T05:57:42.134Z,36.00
2019-03-22T05:58:42.145Z,32.00
2019-03-22T05:59:43.120Z,32.00
2019-03-22T06:00:42.163Z,36.00
2019-03-22T06:01:42.172Z,36.00
2019-03-22T06:02:42.177Z,36.00
2019-03-22T06:03:42.186Z,40.00
2019-03-22T06:04:42.193Z,40.00
2019-03-22T06:05:42.206Z,40.00
2019-03-22T06:06:42.211Z,40.00
2019-03-22T06:07:42.225Z,44.00
2019-03-22T06:08:42.230Z,44.00
2019-03-22T06:09:42.241Z,44.00
2019-03-22T06:10:42.250Z,48.00
2019-03-22T06:11:42.256Z,44.00
2019-03-22T06:12:42.265Z,44.00
2019-03-22T06:13:44.343Z,48.00
2019-03-22T06:14:42.286Z,48.00
2019-03-22T06:15:42.292Z,48.00
2019-03-22T06:16:42.301Z,48.00
2019-03-22T06:17:51.247Z,48.00
2019-03-22T06:18:42.318Z,52.00
2019-03-22T06:19:42.327Z,52.00
2019-03-22T06:20:42.341Z,52.00
2019-03-22T06:21:42.347Z,56.00
2019-03-22T06:22:42.353Z,52.00
2019-03-22T06:23:42.361Z,52.00
2019-03-22T06:24:42.375Z,56.00
2019-03-22T06:25:42.376Z,56.00
2019-03-22T06:26:42.384Z,56.00
2019-03-22T06:27:42.395Z,56.00
2019-03-22T06:28:42.409Z,56.00
2019-03-22T06:29:53.360Z,56.00
2019-03-22T06:30:42.421Z,56.00
2019-03-22T06:31:42.430Z,56.00
2019-03-22T06:32:42.443Z,64.00
2019-03-22T06:33:42.444Z,64.00
2019-03-22T06:34:42.461Z,64.00
2019-03-22T06:35:42.462Z,64.00
2019-03-22T06:36:42.546Z,64.00
2019-03-22T06:37:42.480Z,64.00
2019-03-22T06:38:42.486Z,64.00
2019-03-22T06:39:42.496Z,64.00
2019-03-22T06:40:42.507Z,64.00
2019-03-22T06:41:42.514Z,64.00
2019-03-22T06:42:42.524Z,68.00
2019-03-22T06:43:42.533Z,68.00
2019-03-22T06:44:42.543Z,68.00
2019-03-22T06:45:42.547Z,68.00
2019-03-22T06:46:42.553Z,68.00
2019-03-22T06:47:42.567Z,68.00
2019-03-22T06:48:42.577Z,68.00
2019-03-22T06:49:42.585Z,72.00
2019-03-22T06:50:42.593Z,72.00
2019-03-22T06:51:42.601Z,72.00
2019-03-22T06:52:42.610Z,72.00
2019-03-22T06:53:42.618Z,72.00
2019-03-22T06:54:42.624Z,72.00
2019-03-22T06:55:42.631Z,72.00
2019-03-22T06:56:42.645Z,72.00
2019-03-22T06:57:42.651Z,76.00
2019-03-22T06:58:42.665Z,84.00
2019-03-22T06:59:42.671Z,96.00
2019-03-22T07:00:42.677Z,112.00
2019-03-22T07:01:42.681Z,124.00
2019-03-22T07:02:42.691Z,128.00
2019-03-22T07:03:42.699Z,132.00
2019-03-22T07:04:42.719Z,136.00
2019-03-22T07:05:42.720Z,136.00
2019-03-22T07:06:42.726Z,136.00
2019-03-22T07:07:42.738Z,140.00
2019-03-22T07:08:42.743Z,140.00
2019-03-22T07:09:42.757Z,140.00
2019-03-22T07:10:42.766Z,144.00
2019-03-22T07:11:42.830Z,144.00
2019-03-22T07:12:42.779Z,148.00
2019-03-22T07:13:42.788Z,148.00
2019-03-22T07:14:42.799Z,148.00
2019-03-22T07:15:42.807Z,156.00
2019-03-22T07:16:42.822Z,156.00
2019-03-22T07:17:42.825Z,156.00
2019-03-22T07:18:42.834Z,156.00
2019-03-22T07:19:42.842Z,160.00
2019-03-22T07:20:42.850Z,160.00
2019-03-22T07:21:42.859Z,164.00
2019-03-22T07:22:42.880Z,164.00
2019-03-22T07:23:42.885Z,168.00
2019-03-22T07:24:42.889Z,168.00
2019-03-22T07:25:42.898Z,168.00
2019-03-22T07:26:42.905Z,172.00
2019-03-22T07:27:42.921Z,172.00
2019-03-22T07:28:42.927Z,172.00
2019-03-22T07:29:42.936Z,176.00
2019-03-22T07:30:42.945Z,180.00
2019-03-22T07:31:42.954Z,184.00
2019-03-22T07:32:42.970Z,184.00
2019-03-22T07:33:42.973Z,188.00
2019-03-22T07:34:42.980Z,188.00
2019-03-22T07:35:42.992Z,188.00
2019-03-22T07:36:43.004Z,192.00
2019-03-22T07:37:43.005Z,192.00
2019-03-22T07:38:43.020Z,192.00
2019-03-22T07:39:43.031Z,196.00
2019-03-22T07:40:43.038Z,204.00
2019-03-22T07:41:43.060Z,204.00
2019-03-22T07:42:43.063Z,204.00
2019-03-22T07:43:43.063Z,208.00
2019-03-22T07:44:43.079Z,208.00
2019-03-22T07:45:43.087Z,208.00
2019-03-22T07:46:43.093Z,212.00
2019-03-22T07:47:43.105Z,216.00
2019-03-22T07:48:43.117Z,220.00
2019-03-22T07:49:43.121Z,220.00
2019-03-22T07:50:43.135Z,220.00
2019-03-22T07:51:43.141Z,228.00
2019-03-22T07:52:43.154Z,228.00
2019-03-22T07:53:43.158Z,232.00
2019-03-22T07:54:43.181Z,232.00
2019-03-22T07:55:43.180Z,240.00
2019-03-22T07:56:43.194Z,240.00
2019-03-22T07:57:43.200Z,244.00
2019-03-22T07:58:43.212Z,248.00
2019-03-22T07:59:43.225Z,252.00
2019-03-22T08:00:43.230Z,252.00
2019-03-22T08:01:43.241Z,256.00
2019-03-22T08:02:43.248Z,256.00
2019-03-22T08:03:43.259Z,260.00
2019-03-22T08:04:43.269Z,264.00
2019-03-22T08:05:50.992Z,268.00
2019-03-22T08:06:43.293Z,272.00
2019-03-22T08:07:43.300Z,272.00
2019-03-22T08:08:43.311Z,276.00
2019-03-22T08:09:43.360Z,280.00
2019-03-22T08:10:43.328Z,280.00
2019-03-22T08:11:43.337Z,284.00
2019-03-22T08:12:43.394Z,288.00
2019-03-22T08:13:43.372Z,296.00
2019-03-22T08:14:43.373Z,296.00
2019-03-22T08:15:43.382Z,296.00
2019-03-22T08:16:43.391Z,304.00
2019-03-22T08:17:43.398Z,304.00
2019-03-22T08:18:43.418Z,308.00
2019-03-22T08:19:43.421Z,312.00
2019-03-22T08:20:43.442Z,312.00
2019-03-22T08:21:43.444Z,316.00
2019-03-22T08:22:43.449Z,324.00
2019-03-22T08:23:43.462Z,324.00
2019-03-22T08:24:43.471Z,328.00
2019-03-22T08:25:43.697Z,332.00
2019-03-22T08:26:43.495Z,336.00
2019-03-22T08:27:43.505Z,344.00
2019-03-22T08:28:43.514Z,348.00
2019-03-22T08:29:43.564Z,352.00
2019-03-22T08:30:43.624Z,352.00
2019-03-22T08:31:43.558Z,356.00
2019-03-22T08:32:43.558Z,360.00
2019-03-22T08:33:43.591Z,364.00
2019-03-22T08:34:43.582Z,364.00
2019-03-22T08:35:43.601Z,372.00
2019-03-22T08:36:43.622Z,372.00
2019-03-22T08:37:52.452Z,376.00
2019-03-22T08:38:43.628Z,380.00
2019-03-22T08:39:43.629Z,380.00
2019-03-22T08:40:43.643Z,388.00
2019-03-22T08:41:43.662Z,392.00
2019-03-22T08:42:43.682Z,392.00
2019-03-22T08:43:43.674Z,400.00
2019-03-22T08:44:43.688Z,404.00
2019-03-22T08:45:43.743Z,408.00
2019-03-22T08:46:44.983Z,412.00
2019-03-22T08:47:43.715Z,416.00
2019-03-22T08:48:43.726Z,420.00
2019-03-22T08:49:43.995Z,428.00
2019-03-22T08:50:43.749Z,432.00
2019-03-22T08:51:43.761Z,432.00
2019-03-22T08:52:43.773Z,440.00
2019-03-22T08:53:54.740Z,444.00
2019-03-22T08:54:43.796Z,452.00
2019-03-22T08:55:43.802Z,456.00
2019-03-22T08:56:43.840Z,464.00
2019-03-22T08:57:43.829Z,468.00
2019-03-22T08:58:43.836Z,472.00
2019-03-22T08:59:43.916Z,476.00
2019-03-22T09:00:56.656Z,484.00
2019-03-22T09:01:43.962Z,488.00
2019-03-22T09:02:43.885Z,496.00
2019-03-22T09:03:43.895Z,500.00
2019-03-22T09:04:43.943Z,504.00
2019-03-22T09:05:43.913Z,508.00
2019-03-22T09:06:43.935Z,516.00
2019-03-22T09:07:43.991Z,520.00
2019-03-22T09:08:43.960Z,520.00
2019-03-22T09:09:43.964Z,524.00
2019-03-22T09:10:43.973Z,532.00
2019-03-22T09:11:43.983Z,536.00
2019-03-22T09:12:43.999Z,544.00
2019-03-22T09:13:44.048Z,548.00
2019-03-22T09:14:44.057Z,552.00
2019-03-22T09:15:44.036Z,560.00
2019-03-22T09:16:44.059Z,568.00
2019-03-22T09:17:44.056Z,576.00
2019-03-22T09:18:44.071Z,584.00
2019-03-22T09:19:44.112Z,588.00
2019-03-22T09:20:44.104Z,596.00
2019-03-22T09:21:44.121Z,608.00
2019-03-22T09:22:44.164Z,612.00
2019-03-22T09:23:44.136Z,620.00
2019-03-22T09:24:44.143Z,632.00
2019-03-22T09:25:44.153Z,636.00
2019-03-22T09:26:47.834Z,648.00
2019-03-22T09:27:44.176Z,656.00
2019-03-22T09:28:44.213Z,664.00
2019-03-22T09:29:47.201Z,676.00
2019-03-22T09:30:44.214Z,680.00
2019-03-22T09:31:44.270Z,688.00
2019-03-22T09:32:44.264Z,696.00
2019-03-22T09:33:44.246Z,704.00
2019-03-22T09:34:44.285Z,712.00
2019-03-22T09:35:44.312Z,724.00
2019-03-22T09:36:44.338Z,732.00
2019-03-22T09:37:44.299Z,744.00
2019-03-22T09:38:44.339Z,756.00
2019-03-22T09:39:44.351Z,764.00
2019-03-22T09:40:44.353Z,776.00
2019-03-22T09:41:44.380Z,788.00
2019-03-22T09:42:44.364Z,804.00
2019-03-22T09:43:44.381Z,812.00
2019-03-22T09:44:45.216Z,824.00
2019-03-22T09:45:44.417Z,832.00
2019-03-22T09:46:44.439Z,844.00
2019-03-22T09:47:44.437Z,856.00
2019-03-22T09:48:44.441Z,864.00
2019-03-22T09:49:44.450Z,876.00
2019-03-22T09:50:44.461Z,892.00
2019-03-22T09:51:44.487Z,896.00
2019-03-22T09:52:44.489Z,912.00
2019-03-22T09:53:44.512Z,920.00
2019-03-22T09:54:44.528Z,936.00
2019-03-22T09:55:44.547Z,952.00
2019-03-22T09:56:47.352Z,964.00
2019-03-22T09:57:44.602Z,972.00
2019-03-22T09:58:44.564Z,984.00
2019-03-22T09:59:44.579Z,996.00
2019-03-22T10:00:44.650Z,1008.00
2019-03-22T10:01:44.604Z,1020.00
2019-03-22T10:02:44.621Z,1028.00
2019-03-22T10:03:44.695Z,1040.00
2019-03-22T10:04:44.663Z,1048.00
2019-03-22T10:05:44.656Z,1064.00
2019-03-22T10:06:44.669Z,1072.00
2019-03-22T10:07:44.687Z,1084.00
2019-03-22T10:08:44.695Z,1092.00
2019-03-22T10:09:44.710Z,1104.00
2019-03-22T10:10:44.757Z,1112.00
2019-03-22T10:11:44.733Z,1124.00
2019-03-22T10:12:44.796Z,1136.00
2019-03-22T10:13:44.760Z,1148.00
2019-03-22T10:14:44.817Z,1156.00
2019-03-22T10:15:44.794Z,1168.00
2019-03-22T10:16:47.445Z,1172.00
2019-03-22T10:17:44.817Z,1180.00
2019-03-22T10:18:44.825Z,1196.00
2019-03-22T10:19:44.845Z,1204.00
2019-03-22T10:20:44.858Z,1212.00
2019-03-22T10:21:44.880Z,1216.00
2019-03-22T10:22:44.880Z,1232.00
2019-03-22T10:23:44.901Z,1236.00
2019-03-22T10:24:44.915Z,1248.00
2019-03-22T10:25:44.926Z,1256.00
2019-03-22T10:26:44.938Z,1260.00
2019-03-22T10:27:44.955Z,1268.00
2019-03-22T10:28:44.966Z,1276.00
2019-03-22T10:29:44.984Z,1284.00
2019-03-22T10:30:44.995Z,1292.00
2019-03-22T10:31:45.153Z,1296.00
2019-03-22T10:32:45.024Z,1300.00
2019-03-22T10:33:45.034Z,1312.00
2019-03-22T10:34:45.090Z,1320.00
2019-03-22T10:35:45.064Z,1324.00
2019-03-22T10:36:45.076Z,1336.00
2019-03-22T10:37:45.091Z,1340.00
2019-03-22T10:38:45.111Z,1344.00
2019-03-22T10:39:45.118Z,1352.00
2019-03-22T10:40:45.136Z,1360.00
2019-03-22T10:41:45.185Z,1364.00
2019-03-22T10:42:45.191Z,1372.00
2019-03-22T10:43:45.208Z,1380.00
2019-03-22T10:44:45.189Z,1384.00
2019-03-22T10:45:45.227Z,1388.00
2019-03-22T10:46:45.221Z,1400.00
2019-03-22T10:47:45.282Z,1404.00
2019-03-22T10:48:45.245Z,1408.00
2019-03-22T10:49:45.275Z,1416.00
2019-03-22T10:50:45.277Z,1420.00
2019-03-22T10:51:56.175Z,1424.00
2019-03-22T10:52:48.134Z,1428.00
2019-03-22T10:53:45.334Z,1436.00
2019-03-22T10:54:45.398Z,1440.00
2019-03-22T10:55:45.418Z,1444.00
2019-03-22T10:56:45.363Z,1452.00
2019-03-22T10:57:45.376Z,1456.00
2019-03-22T10:58:45.393Z,1460.00
2019-03-22T10:59:45.405Z,1464.00
2019-03-22T11:00:45.415Z,1468.00
2019-03-22T11:01:52.250Z,1476.00
2019-03-22T11:02:45.452Z,1484.00
2019-03-22T11:03:45.546Z,1488.00
2019-03-22T11:04:45.518Z,1488.00
2019-03-22T11:05:45.495Z,1492.00
2019-03-22T11:06:45.510Z,1496.00
2019-03-22T11:07:45.524Z,1504.00
2019-03-22T11:08:45.539Z,1508.00
2019-03-22T11:09:45.551Z,1512.00
2019-03-22T11:10:45.571Z,1520.00
2019-03-22T11:11:45.588Z,1524.00
2019-03-22T11:12:45.595Z,1524.00
2019-03-22T11:13:45.616Z,1532.00
2019-03-22T11:14:45.822Z,1536.00
2019-03-22T11:15:48.741Z,1540.00
2019-03-22T11:16:45.661Z,1544.00
2019-03-22T11:17:45.682Z,1548.00
2019-03-22T11:18:45.690Z,1556.00
2019-03-22T11:19:45.711Z,1552.00
2019-03-22T11:20:45.921Z,1560.00
2019-03-22T11:21:45.739Z,1560.00
2019-03-22T11:22:45.756Z,1568.00
2019-03-22T11:23:45.775Z,1572.00
2019-03-22T11:24:45.786Z,1576.00
2019-03-22T11:25:45.802Z,1580.00
2019-03-22T11:26:45.824Z,1584.00
2019-03-22T11:27:45.835Z,1584.00
2019-03-22T11:28:45.856Z,1596.00
2019-03-22T11:29:45.869Z,1596.00
2019-03-22T11:30:45.882Z,1600.00
2019-03-22T11:31:45.906Z,1600.00
2019-03-22T11:32:45.918Z,1608.00
2019-03-22T11:33:45.931Z,1604.00
2019-03-22T11:34:45.945Z,1608.00
2019-03-22T11:35:45.962Z,1616.00
2019-03-22T11:36:45.983Z,1620.00
2019-03-22T11:37:45.993Z,1624.00
2019-03-22T11:38:46.016Z,1620.00
2019-03-22T11:39:46.026Z,1628.00
2019-03-22T11:40:46.943Z,1624.00
2019-03-22T11:41:46.059Z,1636.00
2019-03-22T11:42:46.072Z,1632.00
2019-03-22T11:43:46.091Z,1636.00
2019-03-22T11:44:46.105Z,1640.00
2019-03-22T11:45:46.121Z,1644.00
2019-03-22T11:46:46.153Z,1644.00
2019-03-22T11:47:46.158Z,1648.00
2019-03-22T11:48:46.174Z,1652.00
2019-03-22T11:49:46.185Z,1652.00
2019-03-22T11:50:46.204Z,1656.00
2019-03-22T11:51:46.219Z,1660.00
2019-03-22T11:52:46.238Z,1660.00
2019-03-22T11:53:46.249Z,1664.00
2019-03-22T11:54:46.266Z,1664.00
2019-03-22T11:55:46.285Z,1672.00
2019-03-22T11:56:46.298Z,1672.00
2019-03-22T11:57:47.926Z,1676.00
2019-03-22T11:58:46.329Z,1680.00
2019-03-22T11:59:46.348Z,1680.00
2019-03-22T12:00:46.367Z,1684.00
2019-03-22T12:01:46.378Z,1684.00
2019-03-22T12:02:46.395Z,1688.00
2019-03-22T12:03:46.409Z,1688.00
2019-03-22T12:04:46.430Z,1692.00
2019-03-22T12:05:46.445Z,1688.00
2019-03-22T12:06:46.463Z,1692.00
2019-03-22T12:07:46.476Z,1696.00
2019-03-22T12:08:46.490Z,1696.00
2019-03-22T12:09:46.507Z,1700.00
2019-03-22T12:10:46.551Z,1704.00
2019-03-22T12:11:46.541Z,1700.00
2019-03-22T12:12:46.554Z,1700.00
2019-03-22T12:13:46.569Z,1700.00
2019-03-22T12:14:46.591Z,1704.00
2019-03-22T12:15:46.606Z,1704.00
2019-03-22T12:16:46.624Z,1704.00
2019-03-22T12:17:46.636Z,1708.00
2019-03-22T12:18:46.651Z,1712.00
2019-03-22T12:19:46.673Z,1712.00
2019-03-22T12:20:46.689Z,1716.00
2019-03-22T12:21:46.702Z,1716.00
2019-03-22T12:22:46.719Z,1716.00
2019-03-22T12:23:46.742Z,1720.00
2019-03-22T12:24:46.758Z,1720.00
2019-03-22T12:25:46.771Z,1720.00
2019-03-22T12:26:46.784Z,1724.00
2019-03-22T12:27:48.393Z,1720.00
2019-03-22T12:28:46.815Z,1728.00
2019-03-22T12:29:46.830Z,1728.00
2019-03-22T12:30:46.853Z,1728.00
2019-03-22T12:31:46.864Z,1732.00
2019-03-22T12:32:46.886Z,1732.00
2019-03-22T12:33:46.896Z,1732.00
2019-03-22T12:34:46.913Z,1736.00
2019-03-22T12:35:46.931Z,1740.00
2019-03-22T12:36:46.947Z,1744.00
2019-03-22T12:37:46.966Z,1744.00
2019-03-22T12:38:46.986Z,1744.00
2019-03-22T12:39:47.001Z,1748.00
2019-03-22T12:40:47.015Z,1752.00
2019-03-22T12:41:47.030Z,1756.00
2019-03-22T12:42:47.049Z,1764.00
2019-03-22T12:43:47.067Z,1756.00
2019-03-22T12:44:47.079Z,1764.00
2019-03-22T12:45:47.096Z,1768.00
2019-03-22T12:46:49.157Z,1768.00